• Join FlightAware (Why Join?)
  • Login
  • US Flag 
03:14PM EST


 

Airport Tracker/Info


-or-


 

Live Flight TrackerFlight Track Log ✈ FLG3757 ✈ 11-Oct-2013 ✈ KBGM - KDTW

Flight Track Log - Related Links

Times and Time Zones

All times are in EDT time to prevent confusion due to time zone crossing. See the FLG3757 flight status page for this flight to view local times or setup timezone preferences in your user account.

Time Position Orientation Groundspeed Altitude Reporting Facility
EDT Latitude Longitude Course Direction KTS MPH feet Rate Location/Type
06:10AM 42.2389 -76.0211 289° West 136 157 3,100  Level Cleveland Center
06:10AM 42.2581 -76.0914 290° West 202 232 4,700 1,860 Climbing New York Center
06:11AM 42.2808 -76.1828 289° West 237 273 6,400 2,100 Climbing New York Center
06:14AM 42.3508 -76.4203 292° West 310 357 11,600 2,160 Climbing Cleveland Center
06:15AM 42.2278 -76.6293 289° West  Level Estimated
06:15AM 42.3808 -76.5325 290° West 317 365 13,600  Level Cleveland Center
06:16AM 42.4122 -76.6494 290° West 329 379 15,500 1,380 Climbing Cleveland Center
06:17AM 42.4456 -76.7706 290° West 342 394 16,500 1,080 Climbing Cleveland Center
06:18AM 42.4872 -76.9275 290° West 365 420 17,700 960 Climbing Cleveland Center
06:19AM 42.5167 -77.0642 286° West 378 435 18,500 840 Climbing Cleveland Center
06:20AM 42.5247 -77.2103 274° West 388 447 19,500 960 Climbing Cleveland Center
06:21AM 42.5350 -77.3581 275° West 393 452 20,500 900 Climbing Cleveland Center
06:22AM 42.5436 -77.4956 275° West 393 452 21,400 900 Climbing Cleveland Center
06:23AM 42.5531 -77.6447 275° West 396 456 22,400 960 Climbing Cleveland Center
06:24AM 42.5619 -77.7922 275° West 393 452 23,400 1,080 Climbing Cleveland Center
06:25AM 42.5719 -77.9575 275° West 390 449 24,600 840 Climbing Cleveland Center
06:26AM 42.5803 -78.1031 274° West 389 448 25,200 540 Climbing Cleveland Center
06:27AM 42.5883 -78.2525 274° West 395 455 25,700 480 Climbing Cleveland Center
06:28AM 42.5975 -78.4044 275° West 401 461 26,200 480 Climbing Cleveland Center
06:29AM 42.6072 -78.5561 275° West 404 465 26,700 480 Climbing Cleveland Center
06:30AM 42.6142 -78.7103 274° West 411 473 27,200 480 Climbing Cleveland Center
06:31AM 42.6228 -78.8614 274° West 404 465 27,700 360 Climbing Cleveland Center
06:32AM 42.6297 -79.0139 274° West 405 466 28,000 120 Climbing Cleveland Center
06:33AM 42.6367 -79.1692 274° West 412 474 28,000  Level Cleveland Center
06:34AM 42.6447 -79.3250 274° West 415 478 28,000  Level Cleveland Center
06:35AM 42.6514 -79.4825 273° West 418 481 28,000  Level Cleveland Center
06:36AM 42.6586 -79.6406 274° West 422 486 28,000  Level Cleveland Center
06:37AM 42.6647 -79.7994 273° West 422 486 28,000  Level Cleveland Center
06:38AM 42.6728 -79.9889 273° West 421 484 28,000  Level Cleveland Center
06:39AM 42.6772 -80.1294 273° West 419 482 28,000  Level Cleveland Center
06:40AM 42.6836 -80.2889 273° West 419 482 28,000  Level Cleveland Center
06:41AM 42.6903 -80.4503 273° West 422 486 28,000  Level Cleveland Center
06:42AM 42.6950 -80.6111 272° West 423 487 28,000  Level Cleveland Center
06:43AM 42.7028 -80.8019 273° West 433 498 28,000 -300 Level Cleveland Center
06:44AM 42.6958 -80.9631 267° West 429 494 27,400 -840 Descending Cleveland Center
06:45AM 42.6789 -81.1217 262° West 423 487 26,300 -1,080 Descending Cleveland Center
06:46AM 42.6608 -81.2794 261° West 420 483 25,300 -1,020 Descending Cleveland Center
06:47AM 42.6425 -81.4367 261° West 419 482 24,300 -1,020 Descending Cleveland Center
06:48AM 42.6231 -81.5936 260° West 419 482 23,300 -1,320 Descending Cleveland Center
06:49AM 42.6053 -81.7483 261° West 414 476 21,600 -1,800 Descending Cleveland Center
06:50AM 42.5878 -81.8892 260° West 411 473 19,700 -1,920 Descending Cleveland Center
06:51AM 42.5711 -82.0361 261° West 399 459 17,700 -2,100 Descending Cleveland Center
06:52AM 42.5503 -82.2072 261° West 388 447 15,500 -2,220 Descending Cleveland Center
06:53AM 42.5403 -82.2903 261° West 379 436 14,300 -1,980 Descending Cleveland Center
06:53AM 42.5322 -82.3456 259° West 378 435 13,500 -1,860 Descending Cleveland Center
06:54AM 42.5267 -82.3961 262° West 373 429 12,800 -1,500 Descending Cleveland Center
06:54AM 42.5147 -82.4831 259° West 374 430 12,000 -720 Descending Cleveland Center
06:55AM 42.5056 -82.5492 259° West 358 412 12,000 -240 Level Cleveland Center
06:55AM 42.4847 -82.6061 244° Southwest 352 405 11,800 -840 Descending Cleveland Center
06:56AM 42.4658 -82.6656 247° West 348 400 11,200 -1,200 Descending Cleveland Center
06:56AM 42.4461 -82.7147 241° Southwest 331 381 10,600 -1,560 Descending Cleveland Center
06:57AM 42.4289 -82.7739 248° West 282 325 9,500 -1,920 Descending Cleveland Center
06:57AM 42.4219 -82.8150 257° West 297 342 8,700 -1,980 Descending Cleveland Center
06:58AM 42.4156 -82.8964 264° West 283 326 7,300 -1,980 Descending Cleveland Center
06:58AM 42.4144 -82.9211 267° West 286 329 6,700 -1,320 Descending Cleveland Center
06:59AM 42.4100 -83.0003 266° West 279 321 6,000 -720 Descending Cleveland Center
06:59AM 42.4061 -83.0244 258° West 280 322 6,000  Level Cleveland Center
07:00AM 42.4003 -83.1006 264° West 271 312 6,000 -780 Level Cleveland Center
07:00AM 42.3836 -83.1392 240° Southwest 270 311 5,200 -1,920 Descending Cleveland Center
07:01AM 42.3594 -83.1994 242° Southwest 260 299 3,900 -1,800 Descending Cleveland Center
07:01AM 42.3450 -83.2236 231° Southwest 264 304 3,400 -1,200 Descending Cleveland Center
07:02AM 42.3058 -83.2711 222° Southwest 212 244 2,600 -1,020 Descending Cleveland Center
07:03AM 42.2950 -83.2769 202° Southwest 231 266 2,400 -840 Descending Cleveland Center
07:03AM 42.2747 -83.2922 209° Southwest 162 186 2,000 -900 Descending Cleveland Center
07:04AM 42.2556 -83.3061 208° Southwest 171 197 1,500 -840 Descending Cleveland Center
07:04AM 42.2303 -83.3253 209° Southwest 151 174 1,000 -720 Descending Cleveland Center
07:05AM 42.2208 -83.3308 204° Southwest 151 174 800 -540 Descending Cleveland Center
07:07AM 42.2000 -83.3500 236° Southwest  Level FlightAware Approximate
07:14AM 42.2124 -83.3534 236° Southwest  Level Estimated